Cairns AAF (Fort Rucker) Air Field Fort Rucker,Ozark US
ICAO: KOZR
IATA: OZR
Category: Medium
Scheduled Services: No

Elevation: 301 ft
TransAlt. 18000 ft.

Airport Communications:
APP/DEP:121.1
ATIS:111.2
CLNC DEL:118.075
CTAF:135.2
GND:121.9
OPS:126.2
PMSV METRO:134.1
TWR:135.2

KOZR Zoom In..

Runways:

(A) RW 06 length 4546 ft width 150 ft
ILS 109.70 / hdg 64

(B) RW 18 length 5025 ft width 150 ft
---- / hdg 184

(C) RW 24 length 4546 ft width 150 ft
---- / hdg 244

(D) RW 36 length 5025 ft width 150 ft
---- / hdg 4

Location; KOZR
Day. 25 / Time. 09.56 Zulu
* Altimeter: 29.95
* Temperature: 11° c. 51.8°f.
* Wind from: 280° Speed 04 kn.
Dewpoint: 11° c.
Visibility: 10 Statute Miles.
Clouds: Clear (automated report).

KOZR 250956Z AUTO 28004KT 10SM CLR 11/11 A2995 RMK AO2 SLP143 T01110106


Wind From 280°
Speed 04 kn.

  YouTube Music Video
 
jpsmedia.com for Web Design  worldairports.se 2018   terms of use